To NAV CANADA Home Page Login to a new session Search on AWWS site Disclaimer Vers la page française équivalente Tips FAQ What's new on the site To the Forecasts and Observations / NOTAM section To "File a Flight Plan" website Publications and other links Update of the User's profile FIC Telephone Numbers My Weather Data Folder Route Weather Data Regional Weather Data Local Weather Data To the Forecasts and Observations / NOTAM section
Request Generated 04/24/2019 at 16:01:39 UTC . Weather information available at that time is displayed.

METAR/TAF

GASPE (MICHEL-POULIOT)/QC    

METAR CYGP 241500Z 05007KT 7SM OVC014 01/00 A2988 RMK SC8 SLP121=
SPECI CYGP 241447Z 04009KT 7SM OVC015 01/00 A2988 RMK SC8 SLP121=
METAR CYGP 241400Z 04011G18KT 5SM -RA OVC010 01/M00 A2988 RMK SC8 SLP120=
METAR CYGP 241300Z 04009KT 010V080 5SM -RA OVC014 01/M00 A2988 RMK SC8 SLP122=

TAF CYGP 241343Z 2414/2502 05012G22KT 6SM -RASN OVC015 TEMPO
2414/2420 2SM -SNRA BKN008 OVC015 PROB30 2418/2420 1SM -SN
FM242000 07012G22KT 1SM -SN OVC012 TEMPO 2420/2502 3SM -SN
RMK NXT FCST BY 242000Z=
Your time UTC time
Weather data provided by Environment Canada and NAV CANADA